sensor_id;sensor_type;location;lat;lon;timestamp;temperature;humidity
14670;DHT22;7423;48.722;9.350;2023-05-09T00:00:36;17.70;99.90
14670;DHT22;7423;48.722;9.350;2023-05-09T00:03:03;17.60;99.90
14670;DHT22;7423;48.722;9.350;2023-05-09T00:05:31;17.60;99.90
14670;DHT22;7423;48.722;9.350;2023-05-09T00:07:58;17.60;99.90
14670;DHT22;7423;48.722;9.350;2023-05-09T00:10:26;17.60;99.90
14670;DHT22;7423;48.722;9.350;2023-05-09T00:12:53;17.70;99.90
14670;DHT22;7423;48.722;9.350;2023-05-09T00:15:20;17.70;99.90
14670;DHT22;7423;48.722;9.350;2023-05-09T00:17:47;17.60;99.90
14670;DHT22;7423;48.722;9.350;2023-05-09T00:20:13;17.60;99.90
14670;DHT22;7423;48.722;9.350;2023-05-09T00:22:41;17.60;99.90
14670;DHT22;7423;48.722;9.350;2023-05-09T00:25:09;17.60;99.90
14670;DHT22;7423;48.722;9.350;2023-05-09T00:27:36;17.50;99.90
14670;DHT22;7423;48.722;9.350;2023-05-09T00:30:04;17.50;99.90
14670;DHT22;7423;48.722;9.350;2023-05-09T00:32:32;17.40;99.90
14670;DHT22;7423;48.722;9.350;2023-05-09T00:34:59;17.40;99.90
14670;DHT22;7423;48.722;9.350;2023-05-09T00:37:28;17.40;99.90
14670;DHT22;7423;48.722;9.350;2023-05-09T00:39:56;17.40;99.90
14670;DHT22;7423;48.722;9.350;2023-05-09T00:42:23;17.30;99.90
14670;DHT22;7423;48.722;9.350;2023-05-09T00:44:50;17.20;99.90
14670;DHT22;7423;48.722;9.350;2023-05-09T00:47:17;17.20;99.90
14670;DHT22;7423;48.722;9.350;2023-05-09T00:49:43;17.20;99.90
14670;DHT22;7423;48.722;9.350;2023-05-09T00:52:10;17.20;99.90
14670;DHT22;7423;48.722;9.350;2023-05-09T00:54:37;17.20;99.90
14670;DHT22;7423;48.722;9.350;2023-05-09T00:57:04;17.20;99.90
14670;DHT22;7423;48.722;9.350;2023-05-09T00:59:32;17.20;99.90
14670;DHT22;7423;48.722;9.350;2023-05-09T01:02:00;17.20;99.90
14670;DHT22;7423;48.722;9.350;2023-05-09T01:04:28;17.10;99.90
14670;DHT22;7423;48.722;9.350;2023-05-09T01:07:55;17.10;99.90
14670;DHT22;7423;48.722;9.350;2023-05-09T01:10:32;17.00;99.90
14670;DHT22;7423;48.722;9.350;2023-05-09T01:15:53;17.00;99.90
14670;DHT22;7423;48.722;9.350;2023-05-09T01:21:28;16.90;99.90
14670;DHT22;7423;48.722;9.350;2023-05-09T01:24:17;16.90;99.90
14670;DHT22;7423;48.722;9.350;2023-05-09T01:30:04;16.80;99.90
14670;DHT22;7423;48.722;9.350;2023-05-09T01:32:34;16.80;99.90
14670;DHT22;7423;48.722;9.350;2023-05-09T01:35:05;16.80;99.90
14670;DHT22;7423;48.722;9.350;2023-05-09T01:37:35;16.80;99.90
14670;DHT22;7423;48.722;9.350;2023-05-09T01:40:21;16.80;99.90
14670;DHT22;7423;48.722;9.350;2023-05-09T01:42:59;16.80;99.90
14670;DHT22;7423;48.722;9.350;2023-05-09T01:49:35;16.90;99.90
14670;DHT22;7423;48.722;9.350;2023-05-09T01:52:06;16.90;99.90
14670;DHT22;7423;48.722;9.350;2023-05-09T01:54:35;16.90;99.90
14670;DHT22;7423;48.722;9.350;2023-05-09T01:57:03;16.90;99.90
14670;DHT22;7423;48.722;9.350;2023-05-09T01:59:32;16.90;99.90
14670;DHT22;7423;48.722;9.350;2023-05-09T02:02:02;16.80;99.90
14670;DHT22;7423;48.722;9.350;2023-05-09T02:04:29;16.70;99.90
14670;DHT22;7423;48.722;9.350;2023-05-09T02:06:56;16.70;99.90
14670;DHT22;7423;48.722;9.350;2023-05-09T02:09:24;16.70;99.90
14670;DHT22;7423;48.722;9.350;2023-05-09T02:11:51;16.80;99.90
14670;DHT22;7423;48.722;9.350;2023-05-09T02:14:18;16.80;99.90
14670;DHT22;7423;48.722;9.350;2023-05-09T02:16:45;16.70;99.90
14670;DHT22;7423;48.722;9.350;2023-05-09T02:19:11;16.80;99.90
14670;DHT22;7423;48.722;9.350;2023-05-09T02:21:38;16.80;99.90
14670;DHT22;7423;48.722;9.350;2023-05-09T02:24:05;16.70;99.90
14670;DHT22;7423;48.722;9.350;2023-05-09T02:26:32;16.70;99.90
14670;DHT22;7423;48.722;9.350;2023-05-09T02:29:01;16.70;99.90
14670;DHT22;7423;48.722;9.350;2023-05-09T02:31:29;16.60;99.90
14670;DHT22;7423;48.722;9.350;2023-05-09T02:33:56;16.60;99.90
14670;DHT22;7423;48.722;9.350;2023-05-09T02:36:24;16.50;99.90
14670;DHT22;7423;48.722;9.350;2023-05-09T02:38:51;16.40;99.90
14670;DHT22;7423;48.722;9.350;2023-05-09T02:41:18;16.30;99.90
14670;DHT22;7423;48.722;9.350;2023-05-09T02:43:45;16.30;99.90
14670;DHT22;7423;48.722;9.350;2023-05-09T02:46:12;16.20;99.90
14670;DHT22;7423;48.722;9.350;2023-05-09T02:48:39;16.20;99.90
14670;DHT22;7423;48.722;9.350;2023-05-09T02:51:06;16.20;99.90
14670;DHT22;7423;48.722;9.350;2023-05-09T02:53:32;16.20;99.90
14670;DHT22;7423;48.722;9.350;2023-05-09T02:55:59;16.20;99.90
14670;DHT22;7423;48.722;9.350;2023-05-09T02:58:26;16.30;99.90
14670;DHT22;7423;48.722;9.350;2023-05-09T03:00:53;16.30;99.90
14670;DHT22;7423;48.722;9.350;2023-05-09T03:03:20;16.20;99.90
14670;DHT22;7423;48.722;9.350;2023-05-09T03:05:48;16.30;99.90
14670;DHT22;7423;48.722;9.350;2023-05-09T03:08:15;16.30;99.90
14670;DHT22;7423;48.722;9.350;2023-05-09T03:10:42;16.30;99.90
14670;DHT22;7423;48.722;9.350;2023-05-09T03:13:09;16.30;99.90
14670;DHT22;7423;48.722;9.350;2023-05-09T03:15:36;16.30;99.90
14670;DHT22;7423;48.722;9.350;2023-05-09T03:18:03;16.30;99.90
14670;DHT22;7423;48.722;9.350;2023-05-09T03:20:30;16.30;99.90
14670;DHT22;7423;48.722;9.350;2023-05-09T03:22:57;16.30;99.90
14670;DHT22;7423;48.722;9.350;2023-05-09T03:25:24;16.30;99.90
14670;DHT22;7423;48.722;9.350;2023-05-09T03:27:52;16.20;99.90
14670;DHT22;7423;48.722;9.350;2023-05-09T03:30:18;16.20;99.90
14670;DHT22;7423;48.722;9.350;2023-05-09T03:32:45;16.30;99.90
14670;DHT22;7423;48.722;9.350;2023-05-09T03:35:12;16.30;99.90
14670;DHT22;7423;48.722;9.350;2023-05-09T03:37:39;16.20;99.90
14670;DHT22;7423;48.722;9.350;2023-05-09T03:40:07;16.20;99.90
14670;DHT22;7423;48.722;9.350;2023-05-09T03:42:34;16.30;99.90
14670;DHT22;7423;48.722;9.350;2023-05-09T03:45:01;16.20;99.90
14670;DHT22;7423;48.722;9.350;2023-05-09T03:47:28;16.20;99.90
14670;DHT22;7423;48.722;9.350;2023-05-09T03:49:54;16.20;99.90
14670;DHT22;7423;48.722;9.350;2023-05-09T03:52:21;16.20;99.90
14670;DHT22;7423;48.722;9.350;2023-05-09T03:54:48;16.20;99.90
14670;DHT22;7423;48.722;9.350;2023-05-09T03:57:15;16.20;99.90
14670;DHT22;7423;48.722;9.350;2023-05-09T03:59:42;17.30;99.90
14670;DHT22;7423;48.722;9.350;2023-05-09T04:02:09;16.20;99.90
14670;DHT22;7423;48.722;9.350;2023-05-09T04:04:36;16.10;99.90
14670;DHT22;7423;48.722;9.350;2023-05-09T04:07:03;16.20;99.90
14670;DHT22;7423;48.722;9.350;2023-05-09T04:09:30;16.10;99.90
14670;DHT22;7423;48.722;9.350;2023-05-09T04:11:57;16.00;99.90
14670;DHT22;7423;48.722;9.350;2023-05-09T04:14:24;16.00;99.90
14670;DHT22;7423;48.722;9.350;2023-05-09T04:16:50;16.10;99.90
14670;DHT22;7423;48.722;9.350;2023-05-09T04:19:17;16.10;99.90
14670;DHT22;7423;48.722;9.350;2023-05-09T04:21:44;16.10;99.90
14670;DHT22;7423;48.722;9.350;2023-05-09T04:24:11;16.10;99.90
14670;DHT22;7423;48.722;9.350;2023-05-09T04:26:38;16.10;99.90
14670;DHT22;7423;48.722;9.350;2023-05-09T04:29:05;16.10;99.90
14670;DHT22;7423;48.722;9.350;2023-05-09T04:31:31;16.00;99.90
14670;DHT22;7423;48.722;9.350;2023-05-09T04:33:58;16.00;99.90
14670;DHT22;7423;48.722;9.350;2023-05-09T04:36:25;16.00;99.90
14670;DHT22;7423;48.722;9.350;2023-05-09T04:38:53;16.00;99.90
14670;DHT22;7423;48.722;9.350;2023-05-09T04:41:20;16.00;99.90
14670;DHT22;7423;48.722;9.350;2023-05-09T04:43:47;16.00;99.90
14670;DHT22;7423;48.722;9.350;2023-05-09T04:46:13;16.00;99.90
14670;DHT22;7423;48.722;9.350;2023-05-09T04:48:40;16.10;99.90
14670;DHT22;7423;48.722;9.350;2023-05-09T04:51:07;16.10;99.90
14670;DHT22;7423;48.722;9.350;2023-05-09T04:53:34;16.10;99.90
14670;DHT22;7423;48.722;9.350;2023-05-09T04:56:01;16.10;99.90
14670;DHT22;7423;48.722;9.350;2023-05-09T04:58:28;16.10;99.90
14670;DHT22;7423;48.722;9.350;2023-05-09T05:00:55;16.20;99.90
14670;DHT22;7423;48.722;9.350;2023-05-09T05:03:22;16.20;99.90
14670;DHT22;7423;48.722;9.350;2023-05-09T05:05:49;16.20;99.90
14670;DHT22;7423;48.722;9.350;2023-05-09T05:08:16;16.20;99.90
14670;DHT22;7423;48.722;9.350;2023-05-09T05:10:43;16.30;99.90
14670;DHT22;7423;48.722;9.350;2023-05-09T05:13:10;16.30;99.90
14670;DHT22;7423;48.722;9.350;2023-05-09T05:15:37;16.30;99.90
14670;DHT22;7423;48.722;9.350;2023-05-09T05:18:03;16.30;99.90
14670;DHT22;7423;48.722;9.350;2023-05-09T05:20:30;16.40;99.90
14670;DHT22;7423;48.722;9.350;2023-05-09T05:22:57;16.40;99.90
14670;DHT22;7423;48.722;9.350;2023-05-09T05:25:25;16.50;99.90
14670;DHT22;7423;48.722;9.350;2023-05-09T05:27:52;16.40;99.90
14670;DHT22;7423;48.722;9.350;2023-05-09T05:30:19;16.40;99.90
14670;DHT22;7423;48.722;9.350;2023-05-09T05:32:46;16.40;99.90
14670;DHT22;7423;48.722;9.350;2023-05-09T05:35:13;16.50;99.90
14670;DHT22;7423;48.722;9.350;2023-05-09T05:37:41;16.50;99.90
14670;DHT22;7423;48.722;9.350;2023-05-09T05:40:08;16.60;99.90
14670;DHT22;7423;48.722;9.350;2023-05-09T05:42:35;16.60;99.90
14670;DHT22;7423;48.722;9.350;2023-05-09T05:45:02;16.60;99.90
14670;DHT22;7423;48.722;9.350;2023-05-09T05:47:35;16.70;99.90
14670;DHT22;7423;48.722;9.350;2023-05-09T05:50:04;16.70;99.90
14670;DHT22;7423;48.722;9.350;2023-05-09T05:52:38;16.70;99.90
14670;DHT22;7423;48.722;9.350;2023-05-09T05:55:05;16.80;99.90
14670;DHT22;7423;48.722;9.350;2023-05-09T05:57:33;16.80;99.90
14670;DHT22;7423;48.722;9.350;2023-05-09T06:00:00;16.80;99.90
14670;DHT22;7423;48.722;9.350;2023-05-09T06:02:31;16.90;99.90
14670;DHT22;7423;48.722;9.350;2023-05-09T06:04:58;16.90;99.90
14670;DHT22;7423;48.722;9.350;2023-05-09T06:07:24;17.20;99.90
14670;DHT22;7423;48.722;9.350;2023-05-09T06:09:52;17.00;99.90
14670;DHT22;7423;48.722;9.350;2023-05-09T06:12:18;17.00;99.90
14670;DHT22;7423;48.722;9.350;2023-05-09T06:14:45;17.10;99.90
14670;DHT22;7423;48.722;9.350;2023-05-09T06:17:12;17.10;99.90
14670;DHT22;7423;48.722;9.350;2023-05-09T06:19:39;17.10;99.90
14670;DHT22;7423;48.722;9.350;2023-05-09T06:22:06;17.10;99.90
14670;DHT22;7423;48.722;9.350;2023-05-09T06:24:33;17.10;99.90
14670;DHT22;7423;48.722;9.350;2023-05-09T06:27:02;17.10;99.90
14670;DHT22;7423;48.722;9.350;2023-05-09T06:29:29;17.20;99.90
14670;DHT22;7423;48.722;9.350;2023-05-09T06:31:56;17.20;99.90
14670;DHT22;7423;48.722;9.350;2023-05-09T06:34:23;17.20;99.90
14670;DHT22;7423;48.722;9.350;2023-05-09T06:36:50;17.20;99.90
14670;DHT22;7423;48.722;9.350;2023-05-09T06:39:17;17.20;99.90
14670;DHT22;7423;48.722;9.350;2023-05-09T06:41:44;19.40;99.90
14670;DHT22;7423;48.722;9.350;2023-05-09T06:44:11;17.30;99.90
14670;DHT22;7423;48.722;9.350;2023-05-09T06:46:38;17.30;99.90
14670;DHT22;7423;48.722;9.350;2023-05-09T06:49:05;17.30;99.90
14670;DHT22;7423;48.722;9.350;2023-05-09T06:51:32;17.20;99.90
14670;DHT22;7423;48.722;9.350;2023-05-09T06:53:59;17.10;99.90
14670;DHT22;7423;48.722;9.350;2023-05-09T06:56:26;16.90;99.90
14670;DHT22;7423;48.722;9.350;2023-05-09T06:58:53;16.90;99.90
14670;DHT22;7423;48.722;9.350;2023-05-09T07:01:20;17.10;99.90
14670;DHT22;7423;48.722;9.350;2023-05-09T07:03:47;19.10;99.90
14670;DHT22;7423;48.722;9.350;2023-05-09T07:06:14;17.40;99.90
14670;DHT22;7423;48.722;9.350;2023-05-09T07:08:41;17.50;99.90
14670;DHT22;7423;48.722;9.350;2023-05-09T07:11:08;17.50;99.90
14670;DHT22;7423;48.722;9.350;2023-05-09T07:13:35;17.60;99.90
14670;DHT22;7423;48.722;9.350;2023-05-09T07:16:02;17.60;99.90
14670;DHT22;7423;48.722;9.350;2023-05-09T07:18:29;17.60;99.90
14670;DHT22;7423;48.722;9.350;2023-05-09T07:20:56;17.70;99.90
14670;DHT22;7423;48.722;9.350;2023-05-09T07:23:24;17.70;99.90
14670;DHT22;7423;48.722;9.350;2023-05-09T07:25:57;17.80;99.90
14670;DHT22;7423;48.722;9.350;2023-05-09T07:28:25;17.80;99.90
14670;DHT22;7423;48.722;9.350;2023-05-09T07:30:54;17.80;99.90
14670;DHT22;7423;48.722;9.350;2023-05-09T07:33:21;17.90;99.90
14670;DHT22;7423;48.722;9.350;2023-05-09T07:35:48;17.90;99.90
14670;DHT22;7423;48.722;9.350;2023-05-09T07:38:15;18.00;99.90
14670;DHT22;7423;48.722;9.350;2023-05-09T07:40:42;18.00;99.90
14670;DHT22;7423;48.722;9.350;2023-05-09T07:43:09;18.00;99.90
14670;DHT22;7423;48.722;9.350;2023-05-09T07:45:36;18.10;99.90
14670;DHT22;7423;48.722;9.350;2023-05-09T07:48:03;18.10;99.90
14670;DHT22;7423;48.722;9.350;2023-05-09T07:50:30;18.10;99.90
14670;DHT22;7423;48.722;9.350;2023-05-09T07:52:57;18.10;99.90
14670;DHT22;7423;48.722;9.350;2023-05-09T07:55:25;18.20;99.90
14670;DHT22;7423;48.722;9.350;2023-05-09T07:57:52;18.20;99.90
14670;DHT22;7423;48.722;9.350;2023-05-09T08:00:18;18.20;99.90
14670;DHT22;7423;48.722;9.350;2023-05-09T08:02:50;18.30;99.90
14670;DHT22;7423;48.722;9.350;2023-05-09T08:05:17;18.40;99.90
14670;DHT22;7423;48.722;9.350;2023-05-09T08:07:45;18.40;99.90
14670;DHT22;7423;48.722;9.350;2023-05-09T08:10:12;18.40;99.90
14670;DHT22;7423;48.722;9.350;2023-05-09T08:12:39;18.40;99.90
14670;DHT22;7423;48.722;9.350;2023-05-09T08:15:06;18.50;99.90
14670;DHT22;7423;48.722;9.350;2023-05-09T08:17:33;18.50;99.90
14670;DHT22;7423;48.722;9.350;2023-05-09T08:20:00;18.50;99.90
14670;DHT22;7423;48.722;9.350;2023-05-09T08:22:27;18.60;99.90
14670;DHT22;7423;48.722;9.350;2023-05-09T08:24:54;18.60;99.90
14670;DHT22;7423;48.722;9.350;2023-05-09T08:27:21;18.70;99.90
14670;DHT22;7423;48.722;9.350;2023-05-09T08:29:48;18.70;99.90
14670;DHT22;7423;48.722;9.350;2023-05-09T08:32:15;18.70;99.90
14670;DHT22;7423;48.722;9.350;2023-05-09T08:34:42;18.70;99.90
14670;DHT22;7423;48.722;9.350;2023-05-09T08:37:09;18.80;99.90
14670;DHT22;7423;48.722;9.350;2023-05-09T08:39:39;18.90;99.90
14670;DHT22;7423;48.722;9.350;2023-05-09T08:42:07;18.90;99.90
14670;DHT22;7423;48.722;9.350;2023-05-09T08:44:35;18.90;99.90
14670;DHT22;7423;48.722;9.350;2023-05-09T08:47:03;19.00;99.90
14670;DHT22;7423;48.722;9.350;2023-05-09T08:49:30;19.00;99.90
14670;DHT22;7423;48.722;9.350;2023-05-09T08:51:57;19.00;99.90
14670;DHT22;7423;48.722;9.350;2023-05-09T08:54:24;19.10;99.90
14670;DHT22;7423;48.722;9.350;2023-05-09T08:56:51;19.20;99.90
14670;DHT22;7423;48.722;9.350;2023-05-09T08:59:19;19.10;99.90
14670;DHT22;7423;48.722;9.350;2023-05-09T09:01:46;19.10;99.90
14670;DHT22;7423;48.722;9.350;2023-05-09T09:04:13;19.10;99.90
14670;DHT22;7423;48.722;9.350;2023-05-09T09:06:40;19.20;99.90
14670;DHT22;7423;48.722;9.350;2023-05-09T09:09:08;19.30;99.90
14670;DHT22;7423;48.722;9.350;2023-05-09T09:11:36;19.40;99.90
14670;DHT22;7423;48.722;9.350;2023-05-09T09:14:12;19.50;99.90
14670;DHT22;7423;48.722;9.350;2023-05-09T09:16:43;19.40;99.90
14670;DHT22;7423;48.722;9.350;2023-05-09T09:19:12;19.50;99.90
14670;DHT22;7423;48.722;9.350;2023-05-09T09:21:44;19.50;99.90
14670;DHT22;7423;48.722;9.350;2023-05-09T09:24:13;19.50;99.90
14670;DHT22;7423;48.722;9.350;2023-05-09T09:26:48;19.60;99.90
14670;DHT22;7423;48.722;9.350;2023-05-09T09:29:16;19.60;99.90
14670;DHT22;7423;48.722;9.350;2023-05-09T09:31:45;19.70;99.90
14670;DHT22;7423;48.722;9.350;2023-05-09T09:34:19;19.70;99.90
14670;DHT22;7423;48.722;9.350;2023-05-09T09:36:47;19.80;99.90
14670;DHT22;7423;48.722;9.350;2023-05-09T09:39:14;19.90;99.90
14670;DHT22;7423;48.722;9.350;2023-05-09T09:41:41;19.90;99.90
14670;DHT22;7423;48.722;9.350;2023-05-09T09:44:19;20.00;99.90
14670;DHT22;7423;48.722;9.350;2023-05-09T09:46:52;20.00;99.90
14670;DHT22;7423;48.722;9.350;2023-05-09T09:49:24;20.10;99.90
14670;DHT22;7423;48.722;9.350;2023-05-09T09:51:53;20.10;99.90
14670;DHT22;7423;48.722;9.350;2023-05-09T09:54:25;20.20;99.90
14670;DHT22;7423;48.722;9.350;2023-05-09T09:56:53;20.20;99.90
14670;DHT22;7423;48.722;9.350;2023-05-09T09:59:23;20.20;99.90
14670;DHT22;7423;48.722;9.350;2023-05-09T10:02:01;20.30;99.90
14670;DHT22;7423;48.722;9.350;2023-05-09T10:04:36;20.30;99.90
14670;DHT22;7423;48.722;9.350;2023-05-09T10:07:06;20.40;99.90
14670;DHT22;7423;48.722;9.350;2023-05-09T10:09:40;20.50;99.90
14670;DHT22;7423;48.722;9.350;2023-05-09T10:12:08;20.50;99.90
14670;DHT22;7423;48.722;9.350;2023-05-09T10:14:36;20.60;99.90
14670;DHT22;7423;48.722;9.350;2023-05-09T10:17:04;20.60;99.90
14670;DHT22;7423;48.722;9.350;2023-05-09T10:19:31;20.70;99.90
14670;DHT22;7423;48.722;9.350;2023-05-09T10:22:04;20.70;99.90
14670;DHT22;7423;48.722;9.350;2023-05-09T10:27:10;20.60;99.90
14670;DHT22;7423;48.722;9.350;2023-05-09T10:29:41;20.70;99.90
14670;DHT22;7423;48.722;9.350;2023-05-09T10:32:24;20.80;99.90
14670;DHT22;7423;48.722;9.350;2023-05-09T10:34:59;20.80;99.90
14670;DHT22;7423;48.722;9.350;2023-05-09T10:37:28;20.90;99.90
14670;DHT22;7423;48.722;9.350;2023-05-09T10:39:58;20.90;99.90
14670;DHT22;7423;48.722;9.350;2023-05-09T10:42:27;20.90;99.90
14670;DHT22;7423;48.722;9.350;2023-05-09T10:44:55;20.70;99.90
14670;DHT22;7423;48.722;9.350;2023-05-09T10:47:25;20.90;99.90
14670;DHT22;7423;48.722;9.350;2023-05-09T10:49:53;21.00;99.90
14670;DHT22;7423;48.722;9.350;2023-05-09T10:52:21;21.10;99.90
14670;DHT22;7423;48.722;9.350;2023-05-09T10:54:59;21.20;99.90
14670;DHT22;7423;48.722;9.350;2023-05-09T10:57:28;21.30;99.90
14670;DHT22;7423;48.722;9.350;2023-05-09T10:59:56;21.30;99.90
14670;DHT22;7423;48.722;9.350;2023-05-09T11:02:24;21.20;99.90
14670;DHT22;7423;48.722;9.350;2023-05-09T11:05:15;21.30;99.90
14670;DHT22;7423;48.722;9.350;2023-05-09T11:07:43;21.40;99.90
14670;DHT22;7423;48.722;9.350;2023-05-09T11:10:15;21.50;99.90
14670;DHT22;7423;48.722;9.350;2023-05-09T11:12:57;21.60;99.90
14670;DHT22;7423;48.722;9.350;2023-05-09T11:15:25;21.90;99.90
14670;DHT22;7423;48.722;9.350;2023-05-09T11:18:05;21.80;99.90
14670;DHT22;7423;48.722;9.350;2023-05-09T11:20:34;22.20;99.90
14670;DHT22;7423;48.722;9.350;2023-05-09T11:23:05;22.40;99.90
14670;DHT22;7423;48.722;9.350;2023-05-09T11:25:32;22.80;99.90
14670;DHT22;7423;48.722;9.350;2023-05-09T11:28:00;23.00;99.90
14670;DHT22;7423;48.722;9.350;2023-05-09T11:30:42;23.20;99.90
14670;DHT22;7423;48.722;9.350;2023-05-09T11:33:22;23.40;99.90
14670;DHT22;7423;48.722;9.350;2023-05-09T11:36:28;23.20;99.90
14670;DHT22;7423;48.722;9.350;2023-05-09T11:42:02;23.20;99.90
14670;DHT22;7423;48.722;9.350;2023-05-09T11:44:30;23.00;99.90
14670;DHT22;7423;48.722;9.350;2023-05-09T11:46:59;22.90;99.90
14670;DHT22;7423;48.722;9.350;2023-05-09T11:49:28;22.80;99.90
14670;DHT22;7423;48.722;9.350;2023-05-09T11:51:58;22.80;99.90
14670;DHT22;7423;48.722;9.350;2023-05-09T11:54:25;22.60;99.90
14670;DHT22;7423;48.722;9.350;2023-05-09T11:56:52;22.70;99.90
14670;DHT22;7423;48.722;9.350;2023-05-09T11:59:18;22.60;99.90
14670;DHT22;7423;48.722;9.350;2023-05-09T12:01:46;22.40;99.90
14670;DHT22;7423;48.722;9.350;2023-05-09T12:04:14;22.30;99.90
14670;DHT22;7423;48.722;9.350;2023-05-09T12:06:46;22.30;99.90
14670;DHT22;7423;48.722;9.350;2023-05-09T12:09:14;22.30;99.90
14670;DHT22;7423;48.722;9.350;2023-05-09T12:11:48;22.50;99.90
14670;DHT22;7423;48.722;9.350;2023-05-09T12:14:32;22.60;99.90
14670;DHT22;7423;48.722;9.350;2023-05-09T12:17:00;22.90;99.90
14670;DHT22;7423;48.722;9.350;2023-05-09T12:19:27;23.30;99.90
14670;DHT22;7423;48.722;9.350;2023-05-09T12:22:03;23.60;99.90
14670;DHT22;7423;48.722;9.350;2023-05-09T12:24:35;23.70;99.90
14670;DHT22;7423;48.722;9.350;2023-05-09T12:27:03;23.90;99.90
14670;DHT22;7423;48.722;9.350;2023-05-09T12:29:30;24.00;99.90
14670;DHT22;7423;48.722;9.350;2023-05-09T12:31:58;23.90;99.90
14670;DHT22;7423;48.722;9.350;2023-05-09T12:34:25;23.90;99.90
14670;DHT22;7423;48.722;9.350;2023-05-09T12:36:52;23.60;99.90
14670;DHT22;7423;48.722;9.350;2023-05-09T12:39:19;23.50;99.90
14670;DHT22;7423;48.722;9.350;2023-05-09T12:41:49;23.30;99.90
14670;DHT22;7423;48.722;9.350;2023-05-09T12:44:27;23.20;99.90
14670;DHT22;7423;48.722;9.350;2023-05-09T12:47:02;23.10;99.90
14670;DHT22;7423;48.722;9.350;2023-05-09T12:49:31;23.40;99.90
14670;DHT22;7423;48.722;9.350;2023-05-09T12:51:58;23.50;99.90
14670;DHT22;7423;48.722;9.350;2023-05-09T12:54:30;23.60;99.90
14670;DHT22;7423;48.722;9.350;2023-05-09T12:56:57;23.50;99.90
14670;DHT22;7423;48.722;9.350;2023-05-09T12:59:27;23.70;99.90
14670;DHT22;7423;48.722;9.350;2023-05-09T13:01:58;23.70;99.90
14670;DHT22;7423;48.722;9.350;2023-05-09T13:04:26;23.70;99.90
14670;DHT22;7423;48.722;9.350;2023-05-09T13:06:55;23.60;99.90
14670;DHT22;7423;48.722;9.350;2023-05-09T13:09:24;23.60;99.90
14670;DHT22;7423;48.722;9.350;2023-05-09T13:11:52;23.70;99.90
14670;DHT22;7423;48.722;9.350;2023-05-09T13:14:21;23.60;99.90
14670;DHT22;7423;48.722;9.350;2023-05-09T13:16:48;23.60;99.90
14670;DHT22;7423;48.722;9.350;2023-05-09T13:19:15;23.60;99.90
14670;DHT22;7423;48.722;9.350;2023-05-09T13:21:42;23.60;99.90
14670;DHT22;7423;48.722;9.350;2023-05-09T13:24:09;23.60;99.90
14670;DHT22;7423;48.722;9.350;2023-05-09T13:26:36;23.40;99.90
14670;DHT22;7423;48.722;9.350;2023-05-09T13:29:03;23.50;99.90
14670;DHT22;7423;48.722;9.350;2023-05-09T13:31:30;23.40;99.90
14670;DHT22;7423;48.722;9.350;2023-05-09T13:33:57;23.40;99.90
14670;DHT22;7423;48.722;9.350;2023-05-09T13:36:24;23.20;99.90
14670;DHT22;7423;48.722;9.350;2023-05-09T13:38:51;23.30;99.90
14670;DHT22;7423;48.722;9.350;2023-05-09T13:41:18;23.40;99.90
14670;DHT22;7423;48.722;9.350;2023-05-09T13:43:49;23.60;99.90
14670;DHT22;7423;48.722;9.350;2023-05-09T13:46:16;23.60;99.90
14670;DHT22;7423;48.722;9.350;2023-05-09T13:48:43;23.60;99.90
14670;DHT22;7423;48.722;9.350;2023-05-09T13:51:10;23.60;99.90
14670;DHT22;7423;48.722;9.350;2023-05-09T13:53:37;23.70;99.90
14670;DHT22;7423;48.722;9.350;2023-05-09T13:56:06;23.70;99.90
14670;DHT22;7423;48.722;9.350;2023-05-09T13:58:34;23.60;99.90
14670;DHT22;7423;48.722;9.350;2023-05-09T14:01:01;23.60;99.90
14670;DHT22;7423;48.722;9.350;2023-05-09T14:03:28;23.40;99.90
14670;DHT22;7423;48.722;9.350;2023-05-09T14:05:56;23.60;99.90
14670;DHT22;7423;48.722;9.350;2023-05-09T14:08:23;23.50;99.90
14670;DHT22;7423;48.722;9.350;2023-05-09T14:10:49;23.60;99.90
14670;DHT22;7423;48.722;9.350;2023-05-09T14:13:16;23.60;99.90
14670;DHT22;7423;48.722;9.350;2023-05-09T14:15:43;23.60;99.90
14670;DHT22;7423;48.722;9.350;2023-05-09T14:18:11;23.60;99.90
14670;DHT22;7423;48.722;9.350;2023-05-09T14:20:43;23.60;99.90
14670;DHT22;7423;48.722;9.350;2023-05-09T14:23:10;23.50;99.90
14670;DHT22;7423;48.722;9.350;2023-05-09T14:25:37;23.50;99.90
14670;DHT22;7423;48.722;9.350;2023-05-09T14:28:03;23.40;99.90
14670;DHT22;7423;48.722;9.350;2023-05-09T14:30:32;23.40;99.90
14670;DHT22;7423;48.722;9.350;2023-05-09T14:32:59;23.30;99.90
14670;DHT22;7423;48.722;9.350;2023-05-09T14:35:26;23.00;99.90
14670;DHT22;7423;48.722;9.350;2023-05-09T14:37:53;22.90;99.90
14670;DHT22;7423;48.722;9.350;2023-05-09T14:40:20;22.60;99.90
14670;DHT22;7423;48.722;9.350;2023-05-09T14:42:47;22.20;99.90
14670;DHT22;7423;48.722;9.350;2023-05-09T14:45:14;21.70;99.90
14670;DHT22;7423;48.722;9.350;2023-05-09T14:47:41;21.50;99.90
14670;DHT22;7423;48.722;9.350;2023-05-09T14:50:08;21.40;99.90
14670;DHT22;7423;48.722;9.350;2023-05-09T14:52:36;21.30;99.90
14670;DHT22;7423;48.722;9.350;2023-05-09T14:55:04;21.40;99.90
14670;DHT22;7423;48.722;9.350;2023-05-09T14:57:32;21.40;99.90
14670;DHT22;7423;48.722;9.350;2023-05-09T14:59:59;21.40;99.90
14670;DHT22;7423;48.722;9.350;2023-05-09T15:02:45;21.40;99.90
14670;DHT22;7423;48.722;9.350;2023-05-09T15:05:13;21.30;99.90
14670;DHT22;7423;48.722;9.350;2023-05-09T15:07:40;21.30;99.90
14670;DHT22;7423;48.722;9.350;2023-05-09T15:10:07;21.20;99.90
14670;DHT22;7423;48.722;9.350;2023-05-09T15:12:34;21.20;99.90
14670;DHT22;7423;48.722;9.350;2023-05-09T15:15:14;21.10;99.90
14670;DHT22;7423;48.722;9.350;2023-05-09T15:17:43;21.10;99.90
14670;DHT22;7423;48.722;9.350;2023-05-09T15:20:11;21.10;99.90
14670;DHT22;7423;48.722;9.350;2023-05-09T15:22:41;21.10;99.90
14670;DHT22;7423;48.722;9.350;2023-05-09T15:25:08;21.00;99.90
14670;DHT22;7423;48.722;9.350;2023-05-09T15:27:36;21.00;99.90
14670;DHT22;7423;48.722;9.350;2023-05-09T15:30:04;21.00;99.90
14670;DHT22;7423;48.722;9.350;2023-05-09T15:32:31;21.00;99.90
14670;DHT22;7423;48.722;9.350;2023-05-09T15:34:59;21.00;99.90
14670;DHT22;7423;48.722;9.350;2023-05-09T15:37:25;21.00;99.90
14670;DHT22;7423;48.722;9.350;2023-05-09T15:39:52;20.90;99.90
14670;DHT22;7423;48.722;9.350;2023-05-09T15:42:19;20.90;99.90
14670;DHT22;7423;48.722;9.350;2023-05-09T15:44:46;20.90;99.90
14670;DHT22;7423;48.722;9.350;2023-05-09T15:47:13;20.90;99.90
14670;DHT22;7423;48.722;9.350;2023-05-09T15:49:40;21.00;99.90
14670;DHT22;7423;48.722;9.350;2023-05-09T15:52:08;21.10;99.90
14670;DHT22;7423;48.722;9.350;2023-05-09T15:54:36;21.00;99.90
14670;DHT22;7423;48.722;9.350;2023-05-09T15:57:04;21.00;99.90
14670;DHT22;7423;48.722;9.350;2023-05-09T15:59:30;20.90;99.90
14670;DHT22;7423;48.722;9.350;2023-05-09T16:01:57;20.90;99.90
14670;DHT22;7423;48.722;9.350;2023-05-09T16:04:24;20.90;99.90
14670;DHT22;7423;48.722;9.350;2023-05-09T16:06:52;21.00;99.90
14670;DHT22;7423;48.722;9.350;2023-05-09T16:09:19;21.00;99.90
14670;DHT22;7423;48.722;9.350;2023-05-09T16:11:46;20.90;99.90